FOON/MVB METAR and TAF weather

Enter ICAO airport designator
Station Type Date Time Source
FOON METAR 2020/03/28 07:00 UTC NOAA

FOON 280700Z VRB02KT 9999 FEW003 26/25 Q1013


Station Type Date Time Source
FOON Decoded METAR 2020/03/28 07:00 UTC NOAA

Franceville / Mvengue, Gabon (FOON) 01-39S 013-26E
Mar 28, 2020 - 03:00 AM EDT / 2020.03.28 0700 UTC
Wind: Variable at 2 MPH (2 KT):0
Visibility: greater than 7 mile(s):0
Sky conditions: mostly clear
Temperature: 78 F (26 C)
Dew Point: 77 F (25 C)
Relative Humidity: 94%
Pressure (altimeter): 29.91 in. Hg (1013 hPa)
ob: FOON 280700Z VRB02KT 9999 FEW003 26/25 Q1013
cycle: 7

Station Type Date Time Source
FOON TAF 2012/02/17 18:21 UTC NOAA

TAF TAF FOON 151600Z 1518/1618 20004KT 9999 BKN006
TEMPO 1603/1607 0200 FG OVC002
BECMG 1612/1614 TS SCT015 FEW020CB BKN030

Example: see airport list